sensor_id;sensor_type;location;lat;lon;timestamp;P1;durP1;ratioP1;P2;durP2;ratioP2
68523;SDS011;55524;51.380;13.372;2022-12-10T00:00:40;40.83;;;13.00;;
68523;SDS011;55524;51.380;13.372;2022-12-10T00:03:09;43.10;;;13.68;;
68523;SDS011;55524;51.380;13.372;2022-12-10T00:05:44;38.55;;;12.70;;
68523;SDS011;55524;51.380;13.372;2022-12-10T00:08:16;46.75;;;13.93;;
68523;SDS011;55524;51.380;13.372;2022-12-10T00:10:42;40.80;;;13.95;;
68523;SDS011;55524;51.380;13.372;2022-12-10T00:13:12;42.03;;;13.93;;
68523;SDS011;55524;51.380;13.372;2022-12-10T00:15:50;39.95;;;13.20;;
68523;SDS011;55524;51.380;13.372;2022-12-10T00:18:28;44.15;;;13.48;;
68523;SDS011;55524;51.380;13.372;2022-12-10T00:20:58;43.27;;;12.87;;
68523;SDS011;55524;51.380;13.372;2022-12-10T00:23:38;42.55;;;12.48;;
68523;SDS011;55524;51.380;13.372;2022-12-10T00:28:34;42.83;;;13.65;;
68523;SDS011;55524;51.380;13.372;2022-12-10T00:34:20;43.53;;;13.02;;
68523;SDS011;55524;51.380;13.372;2022-12-10T00:36:47;45.90;;;13.60;;
68523;SDS011;55524;51.380;13.372;2022-12-10T00:39:20;42.83;;;12.18;;
68523;SDS011;55524;51.380;13.372;2022-12-10T00:41:55;36.95;;;12.05;;
68523;SDS011;55524;51.380;13.372;2022-12-10T00:44:30;37.85;;;12.55;;
68523;SDS011;55524;51.380;13.372;2022-12-10T00:47:05;36.10;;;12.43;;
68523;SDS011;55524;51.380;13.372;2022-12-10T00:49:40;39.47;;;12.55;;
68523;SDS011;55524;51.380;13.372;2022-12-10T00:52:09;39.65;;;13.05;;
68523;SDS011;55524;51.380;13.372;2022-12-10T00:54:38;40.15;;;13.13;;
68523;SDS011;55524;51.380;13.372;2022-12-10T00:57:13;33.40;;;12.25;;
68523;SDS011;55524;51.380;13.372;2022-12-10T00:59:42;45.55;;;13.23;;
68523;SDS011;55524;51.380;13.372;2022-12-10T01:02:17;39.55;;;11.82;;
68523;SDS011;55524;51.380;13.372;2022-12-10T01:04:44;40.95;;;13.60;;
68523;SDS011;55524;51.380;13.372;2022-12-10T01:07:19;39.35;;;13.20;;
68523;SDS011;55524;51.380;13.372;2022-12-10T01:09:54;38.97;;;12.93;;
68523;SDS011;55524;51.380;13.372;2022-12-10T01:12:20;34.20;;;12.23;;
68523;SDS011;55524;51.380;13.372;2022-12-10T01:14:47;36.22;;;12.15;;
68523;SDS011;55524;51.380;13.372;2022-12-10T01:17:22;41.13;;;12.90;;
68523;SDS011;55524;51.380;13.372;2022-12-10T01:19:51;35.38;;;12.43;;
68523;SDS011;55524;51.380;13.372;2022-12-10T01:22:26;38.22;;;13.15;;
68523;SDS011;55524;51.380;13.372;2022-12-10T01:24:52;37.03;;;12.50;;
68523;SDS011;55524;51.380;13.372;2022-12-10T01:27:27;38.85;;;11.75;;
68523;SDS011;55524;51.380;13.372;2022-12-10T01:30:02;42.55;;;13.00;;
68523;SDS011;55524;51.380;13.372;2022-12-10T01:32:35;39.83;;;12.60;;
68523;SDS011;55524;51.380;13.372;2022-12-10T01:35:01;39.85;;;13.02;;
68523;SDS011;55524;51.380;13.372;2022-12-10T01:37:30;35.50;;;11.90;;
68523;SDS011;55524;51.380;13.372;2022-12-10T01:39:59;37.95;;;12.45;;
68523;SDS011;55524;51.380;13.372;2022-12-10T01:42:31;45.60;;;13.23;;
68523;SDS011;55524;51.380;13.372;2022-12-10T01:45:07;38.50;;;13.18;;
68523;SDS011;55524;51.380;13.372;2022-12-10T01:47:36;38.85;;;13.32;;
68523;SDS011;55524;51.380;13.372;2022-12-10T01:50:03;39.78;;;12.50;;
68523;SDS011;55524;51.380;13.372;2022-12-10T01:55:00;39.08;;;12.43;;
68523;SDS011;55524;51.380;13.372;2022-12-10T01:57:46;36.72;;;12.52;;
68523;SDS011;55524;51.380;13.372;2022-12-10T02:00:30;36.63;;;13.15;;
68523;SDS011;55524;51.380;13.372;2022-12-10T02:03:00;40.30;;;12.88;;
68523;SDS011;55524;51.380;13.372;2022-12-10T02:05:42;37.88;;;13.05;;
68523;SDS011;55524;51.380;13.372;2022-12-10T02:16:38;37.88;;;12.10;;
68523;SDS011;55524;51.380;13.372;2022-12-10T02:21:50;37.35;;;12.80;;
68523;SDS011;55524;51.380;13.372;2022-12-10T02:24:28;39.17;;;12.95;;
68523;SDS011;55524;51.380;13.372;2022-12-10T02:29:55;39.88;;;14.77;;
68523;SDS011;55524;51.380;13.372;2022-12-10T02:32:26;43.20;;;13.98;;
68523;SDS011;55524;51.380;13.372;2022-12-10T02:35:09;42.05;;;12.80;;
68523;SDS011;55524;51.380;13.372;2022-12-10T02:37:45;34.05;;;12.50;;
68523;SDS011;55524;51.380;13.372;2022-12-10T02:40:17;40.60;;;12.90;;
68523;SDS011;55524;51.380;13.372;2022-12-10T02:42:48;36.85;;;12.10;;
68523;SDS011;55524;51.380;13.372;2022-12-10T02:45:25;35.90;;;12.00;;
68523;SDS011;55524;51.380;13.372;2022-12-10T02:47:58;38.45;;;13.23;;
68523;SDS011;55524;51.380;13.372;2022-12-10T03:00:29;43.92;;;14.82;;
68523;SDS011;55524;51.380;13.372;2022-12-10T03:03:25;41.25;;;13.05;;
68523;SDS011;55524;51.380;13.372;2022-12-10T03:06:09;40.47;;;13.70;;
68523;SDS011;55524;51.380;13.372;2022-12-10T03:09:20;42.95;;;13.13;;
68523;SDS011;55524;51.380;13.372;2022-12-10T03:11:52;40.75;;;13.30;;
68523;SDS011;55524;51.380;13.372;2022-12-10T03:14:43;40.83;;;13.52;;
68523;SDS011;55524;51.380;13.372;2022-12-10T03:17:30;39.35;;;13.02;;
68523;SDS011;55524;51.380;13.372;2022-12-10T03:20:05;45.05;;;14.63;;
68523;SDS011;55524;51.380;13.372;2022-12-10T03:25:03;42.28;;;13.80;;
68523;SDS011;55524;51.380;13.372;2022-12-10T03:27:31;43.30;;;13.88;;
68523;SDS011;55524;51.380;13.372;2022-12-10T03:29:58;51.38;;;14.63;;
68523;SDS011;55524;51.380;13.372;2022-12-10T03:32:26;43.13;;;13.45;;
68523;SDS011;55524;51.380;13.372;2022-12-10T03:35:02;36.05;;;12.13;;
68523;SDS011;55524;51.380;13.372;2022-12-10T03:37:31;41.28;;;13.60;;
68523;SDS011;55524;51.380;13.372;2022-12-10T03:40:03;45.63;;;13.90;;
68523;SDS011;55524;51.380;13.372;2022-12-10T03:42:40;48.75;;;14.65;;
68523;SDS011;55524;51.380;13.372;2022-12-10T03:45:07;43.55;;;14.20;;
68523;SDS011;55524;51.380;13.372;2022-12-10T03:47:42;42.95;;;13.48;;
68523;SDS011;55524;51.380;13.372;2022-12-10T03:50:17;43.40;;;13.57;;
68523;SDS011;55524;51.380;13.372;2022-12-10T03:52:53;40.47;;;13.63;;
68523;SDS011;55524;51.380;13.372;2022-12-10T03:55:22;40.85;;;12.70;;
68523;SDS011;55524;51.380;13.372;2022-12-10T03:58:00;49.58;;;13.85;;
68523;SDS011;55524;51.380;13.372;2022-12-10T04:00:35;44.05;;;13.15;;
68523;SDS011;55524;51.380;13.372;2022-12-10T04:03:04;45.65;;;13.90;;
68523;SDS011;55524;51.380;13.372;2022-12-10T04:05:36;40.33;;;12.60;;
68523;SDS011;55524;51.380;13.372;2022-12-10T04:08:02;42.75;;;13.60;;
68523;SDS011;55524;51.380;13.372;2022-12-10T04:10:37;45.20;;;12.60;;
68523;SDS011;55524;51.380;13.372;2022-12-10T04:13:12;45.25;;;13.80;;
68523;SDS011;55524;51.380;13.372;2022-12-10T04:16:07;47.53;;;14.25;;
68523;SDS011;55524;51.380;13.372;2022-12-10T04:18:51;42.38;;;12.57;;
68523;SDS011;55524;51.380;13.372;2022-12-10T04:21:19;37.50;;;12.63;;
68523;SDS011;55524;51.380;13.372;2022-12-10T04:24:14;39.13;;;12.13;;
68523;SDS011;55524;51.380;13.372;2022-12-10T04:27:12;47.08;;;13.63;;
68523;SDS011;55524;51.380;13.372;2022-12-10T04:29:43;41.03;;;13.63;;
68523;SDS011;55524;51.380;13.372;2022-12-10T04:32:09;46.08;;;13.70;;
68523;SDS011;55524;51.380;13.372;2022-12-10T04:34:38;46.13;;;13.05;;
68523;SDS011;55524;51.380;13.372;2022-12-10T04:37:05;48.05;;;13.30;;
68523;SDS011;55524;51.380;13.372;2022-12-10T04:39:52;46.50;;;14.05;;
68523;SDS011;55524;51.380;13.372;2022-12-10T04:42:27;41.75;;;13.48;;
68523;SDS011;55524;51.380;13.372;2022-12-10T04:44:53;45.28;;;13.38;;
68523;SDS011;55524;51.380;13.372;2022-12-10T04:47:22;43.35;;;13.55;;
68523;SDS011;55524;51.380;13.372;2022-12-10T04:49:52;46.95;;;14.20;;
68523;SDS011;55524;51.380;13.372;2022-12-10T04:52:18;48.72;;;13.38;;
68523;SDS011;55524;51.380;13.372;2022-12-10T04:54:47;43.00;;;14.13;;
68523;SDS011;55524;51.380;13.372;2022-12-10T04:57:13;45.58;;;13.90;;
68523;SDS011;55524;51.380;13.372;2022-12-10T04:59:40;47.65;;;14.13;;
68523;SDS011;55524;51.380;13.372;2022-12-10T05:02:26;47.20;;;13.32;;
68523;SDS011;55524;51.380;13.372;2022-12-10T05:04:58;47.40;;;13.60;;
68523;SDS011;55524;51.380;13.372;2022-12-10T05:07:27;49.33;;;13.48;;
68523;SDS011;55524;51.380;13.372;2022-12-10T05:09:57;47.13;;;14.18;;
68523;SDS011;55524;51.380;13.372;2022-12-10T05:12:32;51.20;;;14.73;;
68523;SDS011;55524;51.380;13.372;2022-12-10T05:15:07;44.92;;;13.95;;
68523;SDS011;55524;51.380;13.372;2022-12-10T05:17:37;52.20;;;14.98;;
68523;SDS011;55524;51.380;13.372;2022-12-10T05:20:12;47.53;;;14.40;;
68523;SDS011;55524;51.380;13.372;2022-12-10T05:22:38;41.78;;;13.35;;
68523;SDS011;55524;51.380;13.372;2022-12-10T05:25:23;49.72;;;14.50;;
68523;SDS011;55524;51.380;13.372;2022-12-10T05:28:15;56.78;;;14.60;;
68523;SDS011;55524;51.380;13.372;2022-12-10T05:30:41;48.75;;;15.15;;
68523;SDS011;55524;51.380;13.372;2022-12-10T05:33:19;49.47;;;14.15;;
68523;SDS011;55524;51.380;13.372;2022-12-10T05:38:46;49.03;;;14.18;;
68523;SDS011;55524;51.380;13.372;2022-12-10T05:41:14;50.75;;;14.27;;
68523;SDS011;55524;51.380;13.372;2022-12-10T05:43:45;50.78;;;14.73;;
68523;SDS011;55524;51.380;13.372;2022-12-10T05:46:15;49.50;;;13.18;;
68523;SDS011;55524;51.380;13.372;2022-12-10T05:51:22;50.58;;;13.98;;
68523;SDS011;55524;51.380;13.372;2022-12-10T05:53:56;46.20;;;14.35;;
68523;SDS011;55524;51.380;13.372;2022-12-10T05:56:26;53.65;;;14.45;;
68523;SDS011;55524;51.380;13.372;2022-12-10T05:59:02;50.10;;;14.07;;
68523;SDS011;55524;51.380;13.372;2022-12-10T06:01:37;50.67;;;13.73;;
68523;SDS011;55524;51.380;13.372;2022-12-10T06:04:13;44.53;;;13.55;;
68523;SDS011;55524;51.380;13.372;2022-12-10T06:06:39;54.58;;;14.10;;
68523;SDS011;55524;51.380;13.372;2022-12-10T06:09:10;51.10;;;13.65;;
68523;SDS011;55524;51.380;13.372;2022-12-10T06:11:43;47.17;;;13.40;;
68523;SDS011;55524;51.380;13.372;2022-12-10T06:14:18;47.13;;;13.63;;
68523;SDS011;55524;51.380;13.372;2022-12-10T06:17:05;48.42;;;14.30;;
68523;SDS011;55524;51.380;13.372;2022-12-10T06:19:34;51.85;;;13.90;;
68523;SDS011;55524;51.380;13.372;2022-12-10T06:22:03;48.92;;;13.82;;
68523;SDS011;55524;51.380;13.372;2022-12-10T06:24:32;46.78;;;13.27;;
68523;SDS011;55524;51.380;13.372;2022-12-10T06:27:01;42.03;;;12.52;;
68523;SDS011;55524;51.380;13.372;2022-12-10T06:29:47;50.42;;;14.25;;
68523;SDS011;55524;51.380;13.372;2022-12-10T06:32:16;52.17;;;14.48;;
68523;SDS011;55524;51.380;13.372;2022-12-10T06:34:48;44.85;;;13.88;;
68523;SDS011;55524;51.380;13.372;2022-12-10T06:37:17;51.00;;;13.85;;
68523;SDS011;55524;51.380;13.372;2022-12-10T06:39:44;51.53;;;14.10;;
68523;SDS011;55524;51.380;13.372;2022-12-10T06:42:14;44.55;;;13.30;;
68523;SDS011;55524;51.380;13.372;2022-12-10T06:44:41;37.95;;;12.52;;
68523;SDS011;55524;51.380;13.372;2022-12-10T06:47:10;44.15;;;14.30;;
68523;SDS011;55524;51.380;13.372;2022-12-10T06:49:36;49.35;;;13.48;;
68523;SDS011;55524;51.380;13.372;2022-12-10T06:52:06;40.42;;;12.52;;
68523;SDS011;55524;51.380;13.372;2022-12-10T06:54:41;45.28;;;12.70;;
68523;SDS011;55524;51.380;13.372;2022-12-10T06:57:08;39.97;;;11.93;;
68523;SDS011;55524;51.380;13.372;2022-12-10T06:59:37;41.40;;;12.45;;
68523;SDS011;55524;51.380;13.372;2022-12-10T07:02:09;39.75;;;12.40;;
68523;SDS011;55524;51.380;13.372;2022-12-10T07:04:36;40.88;;;12.73;;
68523;SDS011;55524;51.380;13.372;2022-12-10T07:07:02;36.70;;;12.48;;
68523;SDS011;55524;51.380;13.372;2022-12-10T07:09:53;42.45;;;12.77;;
68523;SDS011;55524;51.380;13.372;2022-12-10T07:12:19;35.65;;;11.50;;
68523;SDS011;55524;51.380;13.372;2022-12-10T07:14:45;32.88;;;12.30;;
68523;SDS011;55524;51.380;13.372;2022-12-10T07:17:11;36.08;;;11.25;;
68523;SDS011;55524;51.380;13.372;2022-12-10T07:19:46;41.75;;;13.25;;
68523;SDS011;55524;51.380;13.372;2022-12-10T07:22:33;37.72;;;12.32;;
68523;SDS011;55524;51.380;13.372;2022-12-10T07:25:11;45.22;;;13.70;;
68523;SDS011;55524;51.380;13.372;2022-12-10T07:27:37;34.63;;;11.73;;
68523;SDS011;55524;51.380;13.372;2022-12-10T07:30:10;38.90;;;12.35;;
68523;SDS011;55524;51.380;13.372;2022-12-10T07:32:36;44.15;;;12.48;;
68523;SDS011;55524;51.380;13.372;2022-12-10T07:35:05;38.47;;;12.20;;
68523;SDS011;55524;51.380;13.372;2022-12-10T07:37:35;38.45;;;12.68;;
68523;SDS011;55524;51.380;13.372;2022-12-10T07:40:04;43.60;;;13.27;;
68523;SDS011;55524;51.380;13.372;2022-12-10T07:42:31;41.45;;;13.20;;
68523;SDS011;55524;51.380;13.372;2022-12-10T07:45:03;39.65;;;13.73;;
68523;SDS011;55524;51.380;13.372;2022-12-10T07:47:34;42.33;;;14.02;;
68523;SDS011;55524;51.380;13.372;2022-12-10T07:50:11;42.42;;;14.27;;
68523;SDS011;55524;51.380;13.372;2022-12-10T07:52:37;46.83;;;16.05;;
68523;SDS011;55524;51.380;13.372;2022-12-10T07:55:24;47.08;;;15.07;;
68523;SDS011;55524;51.380;13.372;2022-12-10T07:58:11;40.17;;;13.98;;
68523;SDS011;55524;51.380;13.372;2022-12-10T08:00:46;45.35;;;14.90;;
68523;SDS011;55524;51.380;13.372;2022-12-10T08:03:33;44.58;;;16.02;;
68523;SDS011;55524;51.380;13.372;2022-12-10T08:06:09;44.22;;;14.77;;
68523;SDS011;55524;51.380;13.372;2022-12-10T08:08:47;41.92;;;14.50;;
68523;SDS011;55524;51.380;13.372;2022-12-10T08:11:17;43.25;;;14.60;;
68523;SDS011;55524;51.380;13.372;2022-12-10T08:13:52;43.72;;;13.93;;
68523;SDS011;55524;51.380;13.372;2022-12-10T08:16:26;42.22;;;13.73;;
68523;SDS011;55524;51.380;13.372;2022-12-10T08:18:56;36.20;;;13.33;;
68523;SDS011;55524;51.380;13.372;2022-12-10T08:21:43;43.40;;;13.98;;
68523;SDS011;55524;51.380;13.372;2022-12-10T08:24:09;41.63;;;13.80;;
68523;SDS011;55524;51.380;13.372;2022-12-10T08:26:38;38.58;;;13.38;;
68523;SDS011;55524;51.380;13.372;2022-12-10T08:29:09;41.80;;;15.35;;
68523;SDS011;55524;51.380;13.372;2022-12-10T08:32:07;36.83;;;14.00;;
68523;SDS011;55524;51.380;13.372;2022-12-10T08:34:42;38.03;;;13.32;;
68523;SDS011;55524;51.380;13.372;2022-12-10T08:37:29;39.85;;;13.52;;
68523;SDS011;55524;51.380;13.372;2022-12-10T08:40:28;41.05;;;13.18;;
68523;SDS011;55524;51.380;13.372;2022-12-10T08:43:16;40.08;;;13.68;;
68523;SDS011;55524;51.380;13.372;2022-12-10T08:46:02;35.75;;;12.93;;
68523;SDS011;55524;51.380;13.372;2022-12-10T08:48:50;31.50;;;11.80;;
68523;SDS011;55524;51.380;13.372;2022-12-10T08:51:26;35.15;;;13.70;;
68523;SDS011;55524;51.380;13.372;2022-12-10T08:54:01;32.72;;;13.00;;
68523;SDS011;55524;51.380;13.372;2022-12-10T08:56:45;34.70;;;12.65;;
68523;SDS011;55524;51.380;13.372;2022-12-10T08:59:23;41.40;;;14.02;;
68523;SDS011;55524;51.380;13.372;2022-12-10T09:01:51;35.78;;;12.77;;
68523;SDS011;55524;51.380;13.372;2022-12-10T09:04:20;33.15;;;12.73;;
68523;SDS011;55524;51.380;13.372;2022-12-10T09:06:47;30.92;;;11.82;;
68523;SDS011;55524;51.380;13.372;2022-12-10T09:09:17;33.75;;;13.05;;
68523;SDS011;55524;51.380;13.372;2022-12-10T09:11:58;38.03;;;13.98;;
68523;SDS011;55524;51.380;13.372;2022-12-10T09:14:24;38.83;;;14.43;;
68523;SDS011;55524;51.380;13.372;2022-12-10T09:17:09;32.80;;;12.95;;
68523;SDS011;55524;51.380;13.372;2022-12-10T09:19:57;33.03;;;13.05;;
68523;SDS011;55524;51.380;13.372;2022-12-10T09:22:55;34.20;;;14.20;;
68523;SDS011;55524;51.380;13.372;2022-12-10T09:25:45;35.55;;;13.15;;
68523;SDS011;55524;51.380;13.372;2022-12-10T09:28:51;32.90;;;13.40;;
68523;SDS011;55524;51.380;13.372;2022-12-10T09:31:22;34.25;;;13.75;;
68523;SDS011;55524;51.380;13.372;2022-12-10T09:34:12;36.00;;;13.80;;
68523;SDS011;55524;51.380;13.372;2022-12-10T09:36:41;36.80;;;13.60;;
68523;SDS011;55524;51.380;13.372;2022-12-10T09:39:16;35.05;;;13.80;;
68523;SDS011;55524;51.380;13.372;2022-12-10T09:47:40;32.10;;;13.73;;
68523;SDS011;55524;51.380;13.372;2022-12-10T09:53:54;179.55;;;77.22;;
68523;SDS011;55524;51.380;13.372;2022-12-10T09:56:40;85.07;;;41.05;;
68523;SDS011;55524;51.380;13.372;2022-12-10T09:59:32;41.42;;;22.10;;
68523;SDS011;55524;51.380;13.372;2022-12-10T10:07:57;50.88;;;19.17;;
68523;SDS011;55524;51.380;13.372;2022-12-10T10:10:30;33.63;;;14.80;;
68523;SDS011;55524;51.380;13.372;2022-12-10T10:15:53;41.42;;;16.73;;
68523;SDS011;55524;51.380;13.372;2022-12-10T10:20:59;33.35;;;14.23;;
68523;SDS011;55524;51.380;13.372;2022-12-10T10:23:50;41.17;;;18.25;;
68523;SDS011;55524;51.380;13.372;2022-12-10T10:26:38;41.05;;;17.52;;
68523;SDS011;55524;51.380;13.372;2022-12-10T10:29:15;32.60;;;14.80;;
68523;SDS011;55524;51.380;13.372;2022-12-10T10:32:14;33.42;;;13.85;;
68523;SDS011;55524;51.380;13.372;2022-12-10T10:35:19;32.42;;;14.70;;
68523;SDS011;55524;51.380;13.372;2022-12-10T10:37:56;30.95;;;14.32;;
68523;SDS011;55524;51.380;13.372;2022-12-10T10:49:29;29.40;;;11.57;;
68523;SDS011;55524;51.380;13.372;2022-12-10T10:52:30;26.00;;;11.68;;
68523;SDS011;55524;51.380;13.372;2022-12-10T10:55:12;26.85;;;11.27;;
68523;SDS011;55524;51.380;13.372;2022-12-10T10:58:21;31.85;;;13.07;;
68523;SDS011;55524;51.380;13.372;2022-12-10T11:00:58;28.98;;;11.57;;
68523;SDS011;55524;51.380;13.372;2022-12-10T11:06:55;31.40;;;11.80;;
68523;SDS011;55524;51.380;13.372;2022-12-10T11:09:49;37.75;;;13.52;;
68523;SDS011;55524;51.380;13.372;2022-12-10T11:12:37;35.70;;;15.05;;
68523;SDS011;55524;51.380;13.372;2022-12-10T11:15:41;29.77;;;12.82;;
68523;SDS011;55524;51.380;13.372;2022-12-10T11:35:47;33.58;;;13.00;;
68523;SDS011;55524;51.380;13.372;2022-12-10T11:38:42;31.80;;;14.35;;
68523;SDS011;55524;51.380;13.372;2022-12-10T11:52:32;29.13;;;12.23;;
68523;SDS011;55524;51.380;13.372;2022-12-10T12:10:51;37.60;;;17.52;;
68523;SDS011;55524;51.380;13.372;2022-12-10T12:16:18;115.70;;;36.00;;
68523;SDS011;55524;51.380;13.372;2022-12-10T12:22:13;47.05;;;18.55;;
68523;SDS011;55524;51.380;13.372;2022-12-10T12:24:45;38.22;;;16.33;;
68523;SDS011;55524;51.380;13.372;2022-12-10T12:27:38;35.67;;;15.57;;
68523;SDS011;55524;51.380;13.372;2022-12-10T12:30:20;32.35;;;14.98;;
68523;SDS011;55524;51.380;13.372;2022-12-10T12:33:22;33.10;;;14.77;;
68523;SDS011;55524;51.380;13.372;2022-12-10T12:36:13;35.95;;;13.68;;
68523;SDS011;55524;51.380;13.372;2022-12-10T12:53:25;33.40;;;13.20;;
68523;SDS011;55524;51.380;13.372;2022-12-10T13:01:34;34.38;;;13.23;;
68523;SDS011;55524;51.380;13.372;2022-12-10T13:04:11;38.80;;;14.43;;
68523;SDS011;55524;51.380;13.372;2022-12-10T13:07:09;36.00;;;15.50;;
68523;SDS011;55524;51.380;13.372;2022-12-10T13:09:45;35.35;;;13.70;;
68523;SDS011;55524;51.380;13.372;2022-12-10T13:12:30;37.78;;;14.38;;
68523;SDS011;55524;51.380;13.372;2022-12-10T13:18:01;38.22;;;14.07;;
68523;SDS011;55524;51.380;13.372;2022-12-10T13:20:45;41.88;;;13.65;;
68523;SDS011;55524;51.380;13.372;2022-12-10T13:25:56;38.38;;;14.00;;
68523;SDS011;55524;51.380;13.372;2022-12-10T13:29:10;39.50;;;15.07;;
68523;SDS011;55524;51.380;13.372;2022-12-10T13:31:54;37.92;;;13.27;;
68523;SDS011;55524;51.380;13.372;2022-12-10T13:34:35;41.05;;;13.93;;
68523;SDS011;55524;51.380;13.372;2022-12-10T13:37:31;40.10;;;15.52;;
68523;SDS011;55524;51.380;13.372;2022-12-10T13:42:39;39.33;;;14.30;;
68523;SDS011;55524;51.380;13.372;2022-12-10T13:45:42;38.33;;;14.05;;
68523;SDS011;55524;51.380;13.372;2022-12-10T13:59:28;42.42;;;14.05;;
68523;SDS011;55524;51.380;13.372;2022-12-10T14:07:42;32.78;;;11.40;;
68523;SDS011;55524;51.380;13.372;2022-12-10T14:10:15;34.05;;;12.20;;
68523;SDS011;55524;51.380;13.372;2022-12-10T14:12:53;35.40;;;12.50;;
68523;SDS011;55524;51.380;13.372;2022-12-10T14:15:29;39.70;;;15.00;;
68523;SDS011;55524;51.380;13.372;2022-12-10T14:18:11;38.88;;;13.05;;
68523;SDS011;55524;51.380;13.372;2022-12-10T14:20:45;64.03;;;16.60;;
68523;SDS011;55524;51.380;13.372;2022-12-10T14:23:28;39.95;;;13.85;;
68523;SDS011;55524;51.380;13.372;2022-12-10T14:28:55;35.25;;;12.55;;
68523;SDS011;55524;51.380;13.372;2022-12-10T14:31:25;38.75;;;14.73;;
68523;SDS011;55524;51.380;13.372;2022-12-10T14:33:59;31.17;;;12.02;;
68523;SDS011;55524;51.380;13.372;2022-12-10T14:36:31;38.13;;;13.23;;
68523;SDS011;55524;51.380;13.372;2022-12-10T14:41:42;45.20;;;14.95;;
68523;SDS011;55524;51.380;13.372;2022-12-10T14:44:34;37.20;;;14.57;;
68523;SDS011;55524;51.380;13.372;2022-12-10T14:47:12;36.55;;;13.98;;
68523;SDS011;55524;51.380;13.372;2022-12-10T14:49:44;48.65;;;17.27;;
68523;SDS011;55524;51.380;13.372;2022-12-10T14:52:14;37.45;;;14.00;;
68523;SDS011;55524;51.380;13.372;2022-12-10T14:54:44;43.13;;;16.52;;
68523;SDS011;55524;51.380;13.372;2022-12-10T14:57:32;39.75;;;15.13;;
68523;SDS011;55524;51.380;13.372;2022-12-10T15:00:04;37.72;;;14.40;;
68523;SDS011;55524;51.380;13.372;2022-12-10T15:02:52;39.13;;;15.98;;
68523;SDS011;55524;51.380;13.372;2022-12-10T15:05:39;41.42;;;16.02;;
68523;SDS011;55524;51.380;13.372;2022-12-10T15:08:07;49.72;;;17.70;;
68523;SDS011;55524;51.380;13.372;2022-12-10T15:10:52;112.97;;;31.65;;
68523;SDS011;55524;51.380;13.372;2022-12-10T15:13:37;88.18;;;32.50;;
68523;SDS011;55524;51.380;13.372;2022-12-10T15:16:14;53.83;;;24.45;;
68523;SDS011;55524;51.380;13.372;2022-12-10T15:18:42;48.22;;;18.42;;
68523;SDS011;55524;51.380;13.372;2022-12-10T15:23:50;49.75;;;20.83;;
68523;SDS011;55524;51.380;13.372;2022-12-10T15:26:34;44.05;;;19.95;;
68523;SDS011;55524;51.380;13.372;2022-12-10T15:31:47;34.45;;;14.65;;
68523;SDS011;55524;51.380;13.372;2022-12-10T15:34:56;44.50;;;17.80;;
68523;SDS011;55524;51.380;13.372;2022-12-10T15:37:40;43.03;;;17.27;;
68523;SDS011;55524;51.380;13.372;2022-12-10T15:40:22;45.97;;;20.00;;
68523;SDS011;55524;51.380;13.372;2022-12-10T15:43:12;45.25;;;18.13;;
68523;SDS011;55524;51.380;13.372;2022-12-10T15:45:44;50.10;;;19.05;;
68523;SDS011;55524;51.380;13.372;2022-12-10T15:48:15;161.73;;;60.67;;
68523;SDS011;55524;51.380;13.372;2022-12-10T15:50:46;123.90;;;52.10;;
68523;SDS011;55524;51.380;13.372;2022-12-10T15:53:34;97.13;;;40.33;;
68523;SDS011;55524;51.380;13.372;2022-12-10T15:56:22;111.43;;;56.15;;
68523;SDS011;55524;51.380;13.372;2022-12-10T15:58:50;72.63;;;37.08;;
68523;SDS011;55524;51.380;13.372;2022-12-10T16:01:17;65.90;;;33.10;;
68523;SDS011;55524;51.380;13.372;2022-12-10T16:03:43;58.47;;;25.70;;
68523;SDS011;55524;51.380;13.372;2022-12-10T16:06:09;56.97;;;25.80;;
68523;SDS011;55524;51.380;13.372;2022-12-10T16:08:36;47.70;;;20.50;;
68523;SDS011;55524;51.380;13.372;2022-12-10T16:11:06;43.38;;;15.90;;
68523;SDS011;55524;51.380;13.372;2022-12-10T16:14:00;47.95;;;16.40;;
68523;SDS011;55524;51.380;13.372;2022-12-10T16:16:28;58.67;;;19.85;;
68523;SDS011;55524;51.380;13.372;2022-12-10T16:18:54;52.55;;;20.30;;
68523;SDS011;55524;51.380;13.372;2022-12-10T16:21:20;55.95;;;20.90;;
68523;SDS011;55524;51.380;13.372;2022-12-10T16:23:47;48.78;;;20.70;;
68523;SDS011;55524;51.380;13.372;2022-12-10T16:28:59;50.63;;;18.15;;
68523;SDS011;55524;51.380;13.372;2022-12-10T16:31:25;50.33;;;19.15;;
68523;SDS011;55524;51.380;13.372;2022-12-10T16:33:51;43.53;;;14.85;;
68523;SDS011;55524;51.380;13.372;2022-12-10T16:36:20;43.03;;;16.27;;
68523;SDS011;55524;51.380;13.372;2022-12-10T16:38:49;44.65;;;15.50;;
68523;SDS011;55524;51.380;13.372;2022-12-10T16:41:19;45.10;;;14.90;;
68523;SDS011;55524;51.380;13.372;2022-12-10T16:43:47;41.85;;;14.68;;
68523;SDS011;55524;51.380;13.372;2022-12-10T16:46:17;43.97;;;14.27;;
68523;SDS011;55524;51.380;13.372;2022-12-10T16:48:47;45.45;;;15.57;;
68523;SDS011;55524;51.380;13.372;2022-12-10T16:51:31;38.25;;;14.48;;
68523;SDS011;55524;51.380;13.372;2022-12-10T16:53:57;45.97;;;14.95;;
68523;SDS011;55524;51.380;13.372;2022-12-10T16:56:29;36.72;;;14.23;;
68523;SDS011;55524;51.380;13.372;2022-12-10T16:59:02;37.40;;;14.15;;
68523;SDS011;55524;51.380;13.372;2022-12-10T17:01:29;39.95;;;14.95;;
68523;SDS011;55524;51.380;13.372;2022-12-10T17:04:13;40.70;;;14.68;;
68523;SDS011;55524;51.380;13.372;2022-12-10T17:06:59;51.88;;;20.55;;
68523;SDS011;55524;51.380;13.372;2022-12-10T17:09:26;40.25;;;16.48;;
68523;SDS011;55524;51.380;13.372;2022-12-10T17:12:01;44.40;;;13.85;;
68523;SDS011;55524;51.380;13.372;2022-12-10T17:14:29;68.63;;;35.80;;
68523;SDS011;55524;51.380;13.372;2022-12-10T17:17:00;49.17;;;18.63;;
68523;SDS011;55524;51.380;13.372;2022-12-10T17:19:30;55.80;;;21.05;;
68523;SDS011;55524;51.380;13.372;2022-12-10T17:22:08;48.30;;;18.70;;
68523;SDS011;55524;51.380;13.372;2022-12-10T17:24:40;48.72;;;16.52;;
68523;SDS011;55524;51.380;13.372;2022-12-10T17:27:17;50.13;;;15.93;;
68523;SDS011;55524;51.380;13.372;2022-12-10T17:29:46;63.88;;;24.77;;
68523;SDS011;55524;51.380;13.372;2022-12-10T17:32:23;64.85;;;30.70;;
68523;SDS011;55524;51.380;13.372;2022-12-10T17:34:52;59.47;;;31.23;;
68523;SDS011;55524;51.380;13.372;2022-12-10T17:37:47;58.25;;;23.95;;
68523;SDS011;55524;51.380;13.372;2022-12-10T17:40:19;47.17;;;18.58;;
68523;SDS011;55524;51.380;13.372;2022-12-10T17:42:47;55.95;;;24.52;;
68523;SDS011;55524;51.380;13.372;2022-12-10T17:45:17;52.40;;;20.10;;
68523;SDS011;55524;51.380;13.372;2022-12-10T17:47:44;55.80;;;23.20;;
68523;SDS011;55524;51.380;13.372;2022-12-10T17:50:27;47.92;;;20.70;;
68523;SDS011;55524;51.380;13.372;2022-12-10T17:52:55;133.30;;;53.35;;
68523;SDS011;55524;51.380;13.372;2022-12-10T17:56:01;51.95;;;18.80;;
68523;SDS011;55524;51.380;13.372;2022-12-10T17:58:28;46.95;;;17.42;;
68523;SDS011;55524;51.380;13.372;2022-12-10T18:00:57;46.35;;;16.40;;